HEGN METAR and TAF | Updated Today

HEGN METAR

Hurghada International Airport

Observation time: 39 min. ago

HEGN 052100Z 00000KT CAVOK 14/02 Q1013 NOSIG

Need help? Read our tutorial on how to read METARs or read the parsed version below.

Hurghada International Airport (HEGN) METAR

  • Weather conditions on Sun, 05 Feb 2023 21:00:00 +0000 (39 min. ago):
  • Present conditions: Dry
  • Clouds: Clear skies
  • Visibility: Greater than 10 km
  • Wind: Calm
  • Temperature: 14 celsius
  • Dew point: 2 celsius
  • Pressure: 1013 millibars
  • Remarks: None


Useful to know...

HEGN TAF

Hurghada International Airport

TAF HEGN 051700Z 0518/0624 14008KT CAVOK TEMPO 0609/0615 32015G25KT 6000 NSC
Observation time: 4:39 hr. ago
Need help? Read our tutorial on how to read TAFs or read the parsed version below.

Parsed version of TAF for Hurghada International Airport (HEGN)

  • From 05 February at 18:00 UTC, to day 06 of the month at 24:00 UTC
  • Visibility: Greater than 10 km
  • Wind: 140 degrees at 8
  • Expected to arise temporarily, from 06 February at 09:00 UTC, to day 06 of the month at 15:00 UTC
  • Clouds: No significant clouds are observed
  • Visibility: 6000 meters
  • Wind: 320 degrees at 15

Airports near HEGN

No airports found within 100nm radius.